Time;durP1;ratioP1;P1;durP2;ratioP2;P2;SDS_P1;SDS_P2;PMS_P1;PMS_P2;Temp;Humidity;BMP_temperature;BMP_pressure;BME280_temperature;BME280_humidity;BME280_pressure;Samples;Min_cycle;Max_cycle;Signal;HPM_P1;HPM_P2
2022/10/02 00:01:57;;;;;;;7.93;2.60;;;13.30;99.90;;;;;;5096811;28;20061;-84
2022/10/02 00:04:31;;;;;;;10.45;2.72;;;13.30;99.90;;;;;;5086957;28;20066;-84
2022/10/02 00:07:04;;;;;;;9.88;2.50;;;12.90;99.90;;;;;;5075690;28;20055;-83
2022/10/02 00:09:56;;;;;;;7.95;2.25;;;12.90;99.90;;;;;;5076118;28;20068;-84
2022/10/02 00:12:25;;;;;;;14.82;2.90;;;13.00;99.90;;;;;;5058639;28;20056;-83
2022/10/02 00:14:55;;;;;;;9.52;2.47;;;12.90;99.90;;;;;;5096125;28;20036;-83
2022/10/02 00:17:26;;;;;;;11.75;2.40;;;13.20;99.90;;;;;;5102053;28;20361;-83
2022/10/02 00:19:55;;;;;;;8.60;2.60;;;12.90;99.90;;;;;;5077753;28;20040;-83
2022/10/02 00:22:32;;;;;;;10.80;3.05;;;12.90;99.90;;;;;;5093253;28;20044;-83
2022/10/02 00:25:26;;;;;;;13.20;3.15;;;12.80;99.90;;;;;;5093213;28;20052;-83
2022/10/02 00:28:03;;;;;;;12.90;3.33;;;12.80;99.90;;;;;;5058639;28;20048;-84
2022/10/02 00:30:40;;;;;;;11.40;3.42;;;12.90;99.90;;;;;;5090877;28;20134;-81
2022/10/02 00:34:06;;;;;;;10.20;2.80;;;12.70;99.90;;;;;;5095720;28;20440;-83
2022/10/02 00:36:51;;;;;;;10.68;3.00;;;12.70;99.90;;;;;;4995963;28;20093;-83
2022/10/02 00:39:34;;;;;;;10.75;3.20;;;12.70;99.90;;;;;;5097967;28;20392;-83
2022/10/02 00:42:08;;;;;;;16.60;3.80;;;12.70;99.90;;;;;;5087363;28;20043;-83
2022/10/02 00:44:52;;;;;;;12.48;3.28;;;12.60;99.90;;;;;;5074153;28;20100;-84
2022/10/02 00:47:29;;;;;;;12.90;3.30;;;12.80;99.90;;;;;;5113384;28;20388;-83
2022/10/02 00:50:27;;;;;;;15.50;3.85;;;12.50;99.90;;;;;;5095779;28;20047;-83
2022/10/02 00:52:56;;;;;;;13.88;3.47;;;12.50;99.90;;;;;;5040032;28;20086;-83
2022/10/02 00:55:36;;;;;;;14.85;3.75;;;12.50;99.90;;;;;;5113410;28;20039;-83
2022/10/02 00:58:30;;;;;;;16.85;3.50;;;12.40;99.90;;;;;;5095148;28;20040;-83
2022/10/02 01:01:04;;;;;;;11.50;3.22;;;12.30;99.90;;;;;;5113011;28;20036;-83
2022/10/02 01:03:47;;;;;;;15.60;3.38;;;12.30;99.90;;;;;;5094849;28;20123;-83
2022/10/02 01:06:13;;;;;;;18.77;4.13;;;12.30;99.90;;;;;;5113241;28;20480;-83
2022/10/02 01:08:39;;;;;;;12.43;3.25;;;12.20;99.90;;;;;;5113405;28;20040;-83
2022/10/02 01:11:07;;;;;;;15.55;3.70;;;12.20;99.90;;;;;;5095189;28;20130;-83
2022/10/02 01:13:32;;;;;;;14.50;3.60;;;12.10;99.90;;;;;;5113564;28;20085;-83
2022/10/02 01:16:02;;;;;;;12.88;3.45;;;12.10;99.90;;;;;;5094872;28;20040;-83
2022/10/02 01:18:29;;;;;;;13.02;3.25;;;12.10;99.90;;;;;;5075094;28;20051;-82
2022/10/02 01:21:11;;;;;;;20.88;4.07;;;12.30;99.90;;;;;;5108192;28;20076;-83
2022/10/02 01:24:04;;;;;;;13.75;3.13;;;12.00;99.90;;;;;;5112684;28;20039;-83
2022/10/02 01:26:30;;;;;;;13.52;3.10;;;12.10;99.90;;;;;;5063963;28;20469;-83
2022/10/02 01:28:56;;;;;;;17.80;3.38;;;12.10;99.90;;;;;;5092830;28;20430;-83
2022/10/02 01:31:23;;;;;;;15.38;3.08;;;12.10;99.90;;;;;;5076806;28;20087;-83
2022/10/02 01:33:50;;;;;;;17.63;3.47;;;12.30;99.90;;;;;;5097484;28;20079;-83
2022/10/02 01:36:16;;;;;;;15.50;3.50;;;12.80;99.90;;;;;;5114845;28;20134;-83
2022/10/02 01:38:43;;;;;;;13.57;3.42;;;12.90;99.90;;;;;;5098798;28;20058;-82
2022/10/02 01:41:12;;;;;;;14.02;3.08;;;12.20;99.90;;;;;;5116747;28;20058;-83
2022/10/02 01:43:53;;;;;;;11.70;3.10;;;12.20;99.90;;;;;;5112072;28;20047;-83
2022/10/02 01:47:08;;;;;;;13.55;3.90;;;12.20;99.90;;;;;;5096162;28;20044;-83
2022/10/02 01:49:58;;;;;;;20.60;3.58;;;12.20;99.90;;;;;;5006377;28;20128;-83
2022/10/02 01:52:41;;;;;;;16.08;3.45;;;12.20;99.90;;;;;;5108059;28;20112;-83
2022/10/02 01:55:23;;;;;;;15.25;3.10;;;12.10;99.90;;;;;;5116553;28;20452;-83
2022/10/02 01:58:16;;;;;;;15.85;3.70;;;12.20;99.90;;;;;;5116521;28;20044;-83
2022/10/02 02:00:53;;;;;;;16.42;3.40;;;12.10;99.90;;;;;;5116432;28;20083;-83
2022/10/02 02:03:46;;;;;;;17.92;3.50;;;12.30;99.90;;;;;;5115797;28;20114;-83
2022/10/02 02:06:24;;;;;;;15.38;3.53;;;12.10;99.90;;;;;;5095631;28;20075;-83
2022/10/02 02:09:00;;;;;;;15.65;3.50;;;12.10;99.90;;;;;;5110158;28;20040;-83
2022/10/02 02:11:27;;;;;;;19.58;3.38;;;12.70;99.90;;;;;;5116130;28;20043;-83
2022/10/02 02:13:55;;;;;;;14.98;2.88;;;12.00;99.90;;;;;;5116350;28;20043;-83
2022/10/02 02:16:46;;;;;;;14.30;2.92;;;12.80;99.90;;;;;;5097655;28;20109;-83
2022/10/02 02:19:18;;;;;;;15.07;3.38;;;12.10;99.90;;;;;;5092328;28;20047;-83
2022/10/02 02:21:57;;;;;;;13.27;3.17;;;12.20;99.90;;;;;;5115837;28;20040;-83
2022/10/02 02:24:40;;;;;;;22.85;3.20;;;12.10;99.90;;;;;;5115319;28;20507;-84
2022/10/02 02:27:09;;;;;;;16.63;3.60;;;12.10;99.90;;;;;;5115398;28;20047;-83
2022/10/02 02:29:37;;;;;;;15.55;3.20;;;12.20;99.90;;;;;;5107646;28;20378;-83
2022/10/02 02:32:07;;;;;;;12.05;2.75;;;12.10;99.90;;;;;;5085583;28;20154;-84
2022/10/02 02:34:48;;;;;;;13.82;3.20;;;12.10;99.90;;;;;;5095307;28;20048;-83
2022/10/02 02:37:18;;;;;;;10.93;2.58;;;12.20;99.90;;;;;;5077656;28;20055;-83
2022/10/02 02:39:53;;;;;;;13.82;3.20;;;12.60;99.90;;;;;;5076666;28;20044;-83
2022/10/02 02:42:22;;;;;;;11.82;2.80;;;12.10;99.90;;;;;;5074693;28;20119;-83
2022/10/02 02:44:51;;;;;;;16.27;2.90;;;12.10;99.90;;;;;;5107199;28;20047;-83
2022/10/02 02:47:21;;;;;;;10.27;2.88;;;12.20;99.90;;;;;;5080714;28;20032;-83
2022/10/02 02:50:07;;;;;;;9.30;2.72;;;12.10;99.90;;;;;;5078098;28;20073;-83
2022/10/02 02:52:41;;;;;;;11.07;2.50;;;12.10;99.90;;;;;;5090524;28;20077;-83
2022/10/02 02:55:18;;;;;;;17.98;3.08;;;12.20;99.90;;;;;;5086733;28;20074;-83
2022/10/02 02:58:02;;;;;;;9.27;2.92;;;12.30;99.90;;;;;;5076866;28;20040;-83
2022/10/02 03:00:28;;;;;;;13.93;2.97;;;12.30;99.90;;;;;;5088331;28;20464;-83
2022/10/02 03:02:54;;;;;;;11.00;2.75;;;11.30;99.90;;;;;;5096456;28;20140;-83
2022/10/02 03:05:21;;;;;;;13.77;2.70;;;12.30;99.90;;;;;;5090975;28;20404;-84
2022/10/02 03:07:56;;;;;;;12.77;2.40;;;12.30;99.90;;;;;;5073849;28;20567;-83
2022/10/02 03:10:50;;;;;;;10.77;2.63;;;12.20;99.90;;;;;;5076299;28;20074;-83
2022/10/02 03:13:38;;;;;;;12.25;2.78;;;12.20;99.90;;;;;;5077486;28;20044;-83
2022/10/02 03:16:16;;;;;;;9.40;2.53;;;12.20;99.90;;;;;;5083236;28;20052;-81
2022/10/02 03:18:48;;;;;;;13.85;3.15;;;12.30;99.90;;;;;;5094725;28;20040;-80
2022/10/02 03:21:26;;;;;;;15.68;2.95;;;12.80;99.90;;;;;;5094192;28;20086;-80
2022/10/02 03:24:05;;;;;;;14.32;2.55;;;12.30;99.90;;;;;;5076715;28;20123;-81
2022/10/02 03:26:36;;;;;;;12.88;2.53;;;12.30;99.90;;;;;;5084590;28;20123;-81
2022/10/02 03:29:06;;;;;;;14.50;2.67;;;12.20;99.90;;;;;;5110676;28;20504;-81
2022/10/02 03:31:33;;;;;;;13.80;2.65;;;12.70;99.90;;;;;;5074408;28;20087;-82
2022/10/02 03:34:01;;;;;;;14.57;2.60;;;12.50;99.90;;;;;;5093693;28;20043;-81
2022/10/02 03:36:27;;;;;;;13.05;2.67;;;12.30;99.90;;;;;;5093790;28;20123;-82
2022/10/02 03:38:55;;;;;;;15.40;2.72;;;13.30;99.90;;;;;;5093820;28;20063;-82
2022/10/02 03:41:21;;;;;;;14.38;2.95;;;12.60;99.90;;;;;;5102148;28;20046;-82
2022/10/02 03:43:47;;;;;;;16.50;2.70;;;12.40;99.90;;;;;;5114356;28;20047;-82
2022/10/02 03:46:12;;;;;;;12.23;2.70;;;12.40;99.90;;;;;;5114019;28;20039;-82
2022/10/02 03:48:38;;;;;;;14.80;2.53;;;12.40;99.90;;;;;;5096092;28;20043;-82
2022/10/02 03:51:03;;;;;;;18.30;2.83;;;12.80;99.90;;;;;;5113829;28;20505;-82
2022/10/02 03:53:32;;;;;;;14.50;2.97;;;12.40;99.90;;;;;;5113093;28;20050;-82
2022/10/02 03:56:04;;;;;;;18.02;2.92;;;12.50;99.90;;;;;;5113926;28;20044;-82
2022/10/02 03:58:30;;;;;;;18.60;2.78;;;12.40;99.90;;;;;;5114356;28;20078;-82
2022/10/02 04:01:05;;;;;;;16.40;2.65;;;13.60;99.90;;;;;;5095889;28;20062;-79
2022/10/02 04:03:38;;;;;;;14.48;2.90;;;12.50;99.90;;;;;;5095692;28;20396;-82
2022/10/02 04:06:12;;;;;;;12.38;2.40;;;12.70;99.90;;;;;;5078573;28;20083;-82
2022/10/02 04:08:46;;;;;;;14.85;2.72;;;12.50;99.90;;;;;;5095880;28;20039;-82
2022/10/02 04:11:22;;;;;;;13.15;2.80;;;12.50;99.90;;;;;;5113692;28;20035;-82
2022/10/02 04:14:17;;;;;;;13.85;2.90;;;12.70;99.90;;;;;;5113794;28;20058;-82
2022/10/02 04:17:03;;;;;;;14.30;2.95;;;12.50;99.90;;;;;;5090922;28;20123;-82
2022/10/02 04:19:39;;;;;;;18.38;2.97;;;12.40;99.90;;;;;;5081498;28;20504;-82
2022/10/02 04:22:23;;;;;;;15.40;3.10;;;12.40;99.90;;;;;;5093816;28;20039;-82
2022/10/02 04:24:58;;;;;;;15.73;3.17;;;12.40;99.90;;;;;;5092106;28;20358;-82
2022/10/02 04:27:38;;;;;;;11.45;2.58;;;12.40;99.90;;;;;;5073521;28;20051;-82
2022/10/02 04:30:10;;;;;;;14.50;3.13;;;12.40;99.90;;;;;;5075317;28;20047;-82
2022/10/02 04:32:36;;;;;;;13.50;2.75;;;12.40;99.90;;;;;;5092530;28;20121;-82
2022/10/02 04:35:12;;;;;;;21.70;2.75;;;12.40;99.90;;;;;;5092889;28;20056;-82
2022/10/02 04:37:47;;;;;;;;;;;12.40;99.90;;;;;;5093035;28;20062;-82
2022/10/02 04:40:54;;;;;;;16.80;3.17;;;12.40;99.90;;;;;;5074377;28;19920;-82
2022/10/02 04:43:43;;;;;;;12.55;2.88;;;12.40;99.90;;;;;;5083440;28;20047;-82
2022/10/02 04:46:38;;;;;;;17.67;2.85;;;12.30;99.90;;;;;;5091644;28;20083;-82
2022/10/02 04:49:22;;;;;;;18.92;3.65;;;12.30;99.90;;;;;;5093949;28;20036;-82
2022/10/02 04:52:18;;;;;;;16.52;2.92;;;12.30;99.90;;;;;;5074240;28;20048;-82
2022/10/02 04:54:58;;;;;;;11.88;2.80;;;12.30;99.90;;;;;;5074410;28;20051;-81
2022/10/02 04:57:46;;;;;;;17.35;2.83;;;12.30;99.90;;;;;;5092638;28;20059;-81
2022/10/02 05:00:25;;;;;;;13.13;2.67;;;12.30;99.90;;;;;;5092466;28;20040;-82
2022/10/02 05:03:00;;;;;;;17.95;3.38;;;12.70;99.90;;;;;;5092505;28;20157;-82
2022/10/02 05:05:47;;;;;;;15.95;2.72;;;12.20;99.90;;;;;;5109986;28;20039;-82
2022/10/02 05:08:50;;;;;;;16.90;3.65;;;12.10;99.90;;;;;;5095145;28;20397;-82
2022/10/02 05:11:44;;;;;;;15.63;2.65;;;12.10;99.90;;;;;;5077997;28;20058;-82
2022/10/02 05:14:54;;;;;;;17.40;2.60;;;12.10;99.90;;;;;;5096682;28;20047;-82
2022/10/02 05:17:44;;;;;;;19.77;3.10;;;12.10;99.90;;;;;;5073262;28;20058;-81
2022/10/02 05:20:27;;;;;;;18.23;2.90;;;12.70;99.90;;;;;;5095521;28;20039;-82
2022/10/02 05:23:29;;;;;;;19.35;3.13;;;12.00;99.90;;;;;;5116674;28;20468;-81
2022/10/02 05:26:30;;;;;;;14.90;2.70;;;11.90;99.90;;;;;;5072993;28;20048;-82
2022/10/02 05:29:12;;;;;;;18.10;3.00;;;11.90;99.90;;;;;;5096374;28;20047;-82
2022/10/02 05:31:47;;;;;;;17.52;2.47;;;11.80;99.90;;;;;;5061181;28;20171;-82
2022/10/02 05:34:48;;;;;;;16.00;2.92;;;12.70;99.90;;;;;;5095639;28;20105;-82
2022/10/02 05:37:40;;;;;;;13.05;3.17;;;11.80;99.90;;;;;;5116593;28;20093;-82
2022/10/02 05:40:27;;;;;;;18.20;3.50;;;11.80;99.90;;;;;;5116719;28;20044;-81
2022/10/02 05:43:13;;;;;;;13.23;2.55;;;11.70;99.90;;;;;;5116312;28;20376;-81
2022/10/02 05:45:51;;;;;;;14.45;3.00;;;12.20;99.90;;;;;;5097411;28;20052;-82
2022/10/02 05:48:22;;;;;;;18.40;3.25;;;11.70;99.90;;;;;;5098916;28;20044;-82
2022/10/02 05:50:54;;;;;;;22.15;3.42;;;11.70;99.90;;;;;;5078587;28;20051;-75
2022/10/02 05:53:38;;;;;;;14.30;2.67;;;11.70;99.90;;;;;;5113263;28;20055;-75
2022/10/02 05:56:12;;;;;;;15.05;3.20;;;11.70;99.90;;;;;;5116297;28;20040;-75
2022/10/02 05:58:49;;;;;;;13.68;2.70;;;11.70;99.90;;;;;;5098013;28;20134;-75
2022/10/02 06:01:38;;;;;;;15.05;2.90;;;12.00;99.90;;;;;;5089556;28;20039;-75
2022/10/02 06:04:32;;;;;;;20.98;3.03;;;11.70;99.90;;;;;;5101011;28;20050;-75
2022/10/02 06:07:07;;;;;;;18.42;3.10;;;11.70;99.90;;;;;;5097718;28;20079;-75
2022/10/02 06:09:46;;;;;;;14.38;3.00;;;11.60;99.90;;;;;;5116051;28;20067;-75
2022/10/02 06:12:16;;;;;;;17.52;3.03;;;11.70;99.90;;;;;;5115579;28;20124;-76
2022/10/02 06:14:59;;;;;;;14.48;2.95;;;12.40;99.90;;;;;;5116074;28;20401;-75
2022/10/02 06:17:48;;;;;;;21.75;3.30;;;11.70;99.90;;;;;;5112876;28;20047;-76
2022/10/02 06:20:41;;;;;;;18.42;3.08;;;11.70;99.90;;;;;;5068445;28;20091;-76
2022/10/02 06:23:15;;;;;;;13.70;3.00;;;11.70;99.90;;;;;;5109668;28;20503;-76
2022/10/02 06:25:46;;;;;;;16.67;2.88;;;11.80;99.90;;;;;;5097182;28;20047;-76
2022/10/02 06:28:24;;;;;;;15.15;2.90;;;11.80;99.90;;;;;;5094176;28;20052;-76
2022/10/02 06:30:58;;;;;;;15.32;3.13;;;11.80;99.90;;;;;;5094743;28;20079;-76
2022/10/02 06:33:28;;;;;;;17.48;2.85;;;12.20;99.90;;;;;;5076343;28;20056;-76
2022/10/02 06:36:16;;;;;;;16.77;2.78;;;12.00;99.90;;;;;;5074008;28;20048;-76
2022/10/02 06:39:00;;;;;;;17.40;2.80;;;12.10;99.90;;;;;;5091901;28;20519;-76
2022/10/02 06:41:53;;;;;;;19.40;3.13;;;12.20;99.90;;;;;;5094860;28;20044;-76
2022/10/02 06:44:27;;;;;;;12.15;2.80;;;13.60;99.90;;;;;;5076915;28;20580;-76
2022/10/02 06:47:05;;;;;;;13.52;3.20;;;13.90;99.90;;;;;;5076462;28;20051;-76
2022/10/02 06:49:38;;;;;;;17.25;3.05;;;14.40;99.90;;;;;;5095116;28;20040;-76
2022/10/02 06:52:22;;;;;;;17.70;2.90;;;15.10;99.90;;;;;;5095223;28;20059;-76
2022/10/02 06:54:51;;;;;;;13.82;2.67;;;14.40;99.90;;;;;;5081180;28;20048;-76
2022/10/02 06:57:54;;;;;;;11.98;2.72;;;14.30;99.90;;;;;;5114630;28;20484;-76
2022/10/02 07:00:21;;;;;;;15.85;2.80;;;14.10;99.90;;;;;;5114604;28;20055;-77
2022/10/02 07:03:00;;;;;;;13.35;2.63;;;14.20;99.90;;;;;;5111282;28;20615;-77
2022/10/02 07:05:35;;;;;;;13.70;2.55;;;13.80;99.90;;;;;;5115026;28;20039;-76
2022/10/02 07:08:31;;;;;;;13.67;2.80;;;13.60;99.90;;;;;;5114931;28;20101;-76
2022/10/02 07:11:15;;;;;;;15.43;2.90;;;13.60;99.90;;;;;;5111570;28;20043;-76
2022/10/02 07:14:05;;;;;;;13.18;2.53;;;13.60;99.90;;;;;;5080200;28;20055;-76
2022/10/02 07:17:12;;;;;;;17.75;3.42;;;13.50;99.90;;;;;;5091572;28;20070;-77
2022/10/02 07:20:02;;;;;;;21.45;3.13;;;13.40;99.90;;;;;;4996122;28;20052;-76
2022/10/02 07:22:44;;;;;;;16.08;2.97;;;13.40;99.90;;;;;;5075329;28;20044;-76
2022/10/02 07:25:44;;;;;;;16.05;2.95;;;13.40;99.90;;;;;;5076781;28;20362;-77
2022/10/02 07:28:26;;;;;;;13.57;3.00;;;13.50;99.90;;;;;;5094637;28;20093;-76
2022/10/02 07:30:54;;;;;;;18.00;3.50;;;13.50;99.90;;;;;;5094208;28;20040;-76
2022/10/02 07:33:20;;;;;;;16.65;2.95;;;13.30;99.90;;;;;;5093990;28;20044;-77
2022/10/02 07:36:41;;;;;;;15.50;3.00;;;14.00;99.90;;;;;;5091043;28;20238;-77
2022/10/02 07:39:18;;;;;;;17.48;2.85;;;13.70;99.90;;;;;;4991861;28;20179;-76
2022/10/02 07:41:58;;;;;;;15.15;3.15;;;13.80;99.90;;;;;;4990582;28;20553;-77
2022/10/02 07:44:39;;;;;;;12.30;3.40;;;13.90;99.90;;;;;;5072707;28;20052;-77
2022/10/02 07:47:14;;;;;;;11.93;2.70;;;14.00;99.90;;;;;;5092197;28;20052;-77
2022/10/02 07:49:57;;;;;;;14.75;3.10;;;13.90;99.90;;;;;;5076545;28;20040;-76
2022/10/02 07:52:34;;;;;;;14.85;2.90;;;14.00;99.90;;;;;;5093193;28;20048;-76
2022/10/02 07:55:03;;;;;;;17.35;3.40;;;13.90;99.90;;;;;;5093501;28;20495;-76
2022/10/02 07:57:41;;;;;;;16.50;2.83;;;13.90;99.90;;;;;;5093209;28;20052;-76
2022/10/02 08:00:15;;;;;;;12.52;2.60;;;13.90;99.90;;;;;;5074282;28;20036;-76
2022/10/02 08:02:41;;;;;;;14.82;3.03;;;13.80;99.90;;;;;;5086053;28;20044;-76
2022/10/02 08:05:22;;;;;;;14.80;3.22;;;13.90;99.90;;;;;;5110050;28;20051;-76
2022/10/02 08:07:51;;;;;;;14.38;2.75;;;13.80;99.90;;;;;;5090009;28;20044;-76
2022/10/02 08:10:24;;;;;;;11.57;2.70;;;14.60;99.90;;;;;;5073023;28;20036;-76
2022/10/02 08:12:59;;;;;;;14.70;2.92;;;13.90;99.90;;;;;;5074772;28;20130;-77
2022/10/02 08:15:26;;;;;;;12.38;2.33;;;13.90;99.90;;;;;;5093016;28;20036;-76
2022/10/02 08:17:56;;;;;;;15.32;2.85;;;14.50;99.90;;;;;;5092563;28;20052;-76
2022/10/02 08:20:30;;;;;;;8.68;2.65;;;14.10;99.90;;;;;;5074912;28;20048;-75
2022/10/02 08:23:21;;;;;;;10.35;2.58;;;14.20;99.90;;;;;;5092189;28;20051;-76
2022/10/02 08:26:03;;;;;;;14.75;3.03;;;14.40;99.90;;;;;;5093473;28;20061;-79
2022/10/02 08:28:36;;;;;;;14.00;2.60;;;14.20;99.90;;;;;;5089805;28;20123;-78
2022/10/02 08:31:08;;;;;;;14.00;2.78;;;14.20;99.90;;;;;;5071043;28;20047;-80
2022/10/02 08:33:34;;;;;;;10.40;2.00;;;14.20;99.90;;;;;;5089911;28;20052;-81
2022/10/02 08:36:28;;;;;;;12.07;2.75;;;14.50;99.90;;;;;;5089723;28;20516;-80
2022/10/02 08:39:22;;;;;;;12.73;2.53;;;14.10;99.90;;;;;;5089321;28;20083;-78
2022/10/02 08:41:54;;;;;;;11.80;3.05;;;14.10;99.90;;;;;;5089480;28;20055;-78
2022/10/02 08:45:01;;;;;;;13.38;3.13;;;14.00;99.90;;;;;;5089606;28;20047;-79
2022/10/02 08:47:42;;;;;;;11.55;2.78;;;14.00;99.90;;;;;;5089278;28;20054;-79
2022/10/02 08:50:25;;;;;;;12.02;2.88;;;14.50;99.90;;;;;;5101573;28;20044;-80
2022/10/02 08:53:08;;;;;;;11.43;2.67;;;14.10;99.90;;;;;;5089551;28;20374;-80
2022/10/02 08:56:01;;;;;;;10.77;2.33;;;14.00;99.90;;;;;;5089651;28;20087;-80
2022/10/02 08:58:54;;;;;;;11.05;2.70;;;13.90;99.90;;;;;;5103040;28;20391;-79
2022/10/02 09:01:45;;;;;;;9.63;2.65;;;14.00;99.90;;;;;;5091273;28;20504;-79
2022/10/02 09:04:53;;;;;;;8.43;2.80;;;14.00;99.90;;;;;;5080461;28;20452;-74
2022/10/02 09:07:42;;;;;;;8.68;2.40;;;13.90;99.90;;;;;;5092380;28;20397;-75
2022/10/02 09:10:29;;;;;;;10.13;2.20;;;14.00;99.90;;;;;;5092394;28;20059;-74
2022/10/02 09:13:29;;;;;;;11.32;2.40;;;14.20;99.90;;;;;;5074086;28;20048;-74
2022/10/02 09:16:16;;;;;;;9.02;2.20;;;14.30;99.90;;;;;;5009226;28;20125;-74
2022/10/02 09:19:02;;;;;;;;;;;14.50;99.90;;;;;;5069290;28;20385;-75
2022/10/02 09:21:57;;;;;;;7.75;2.47;;;14.60;99.90;;;;;;5073954;28;19971;-75
2022/10/02 09:24:32;;;;;;;10.27;2.90;;;14.70;99.90;;;;;;5092604;28;20032;-75
2022/10/02 09:27:18;;;;;;;6.43;2.40;;;14.90;99.90;;;;;;5092120;28;20074;-75
2022/10/02 09:29:58;;;;;;;8.52;2.33;;;15.40;99.90;;;;;;5072822;28;20075;-75
2022/10/02 09:32:54;;;;;;;11.15;2.47;;;16.00;99.90;;;;;;5072002;28;20056;-76
2022/10/02 09:35:35;;;;;;;11.27;2.50;;;16.60;99.90;;;;;;5091197;28;20105;-76
2022/10/02 09:38:41;;;;;;;12.75;2.92;;;17.10;99.90;;;;;;5092224;28;20032;-76
2022/10/02 09:42:05;;;;;;;8.87;2.13;;;17.60;99.90;;;;;;5073785;28;20067;-72
2022/10/02 09:45:07;;;;;;;11.52;2.88;;;18.10;99.90;;;;;;5006348;28;20104;-72
2022/10/02 09:48:10;;;;;;;11.95;2.50;;;18.70;99.90;;;;;;5006458;28;20038;-72
2022/10/02 09:51:05;;;;;;;12.50;3.03;;;19.30;99.90;;;;;;5102820;28;20067;-72
2022/10/02 09:54:10;;;;;;;11.40;2.70;;;19.70;99.90;;;;;;5090321;28;20070;-77
2022/10/02 09:57:30;;;;;;;11.00;2.70;;;20.00;99.90;;;;;;5095348;28;20040;-78
2022/10/02 10:00:05;;;;;;;11.13;2.78;;;20.30;99.90;;;;;;5010297;28;20508;-77
2022/10/02 10:02:39;;;;;;;12.40;2.90;;;20.70;99.90;;;;;;5094256;28;20389;-78
2022/10/02 10:05:23;;;;;;;10.00;2.53;;;20.80;99.90;;;;;;5116228;28;20127;-78
2022/10/02 10:08:10;;;;;;;11.88;2.85;;;21.10;99.90;;;;;;5115886;28;20043;-77
2022/10/02 10:11:00;;;;;;;13.43;3.03;;;21.00;99.90;;;;;;5092020;28;20044;-77
2022/10/02 10:13:54;;;;;;;16.83;3.25;;;20.80;99.90;;;;;;5095555;28;20508;-77
2022/10/02 10:16:37;;;;;;;11.75;3.03;;;20.90;99.90;;;;;;5077088;28;20073;-77
2022/10/02 10:19:44;;;;;;;14.75;3.28;;;21.10;99.90;;;;;;5083188;28;20062;-77
2022/10/02 10:22:44;;;;;;;11.95;2.85;;;21.10;99.90;;;;;;5029093;28;20039;-77
2022/10/02 10:25:19;;;;;;;12.38;3.00;;;20.70;99.90;;;;;;5041298;28;20117;-76
2022/10/02 10:27:51;;;;;;;13.70;2.63;;;20.20;99.90;;;;;;5076764;28;20145;-76
2022/10/02 10:30:43;;;;;;;14.05;3.40;;;19.70;99.90;;;;;;5058985;28;20523;-76
2022/10/02 10:33:24;;;;;;;14.85;2.67;;;19.40;99.90;;;;;;5075271;28;20060;-76
2022/10/02 10:39:36;;;;;;;17.63;3.33;;;20.70;99.90;;;;;;5095078;28;20451;-74
2022/10/02 10:42:35;;;;;;;16.85;3.03;;;21.60;99.90;;;;;;5094424;28;20047;-75
2022/10/02 10:45:21;;;;;;;11.43;2.67;;;22.30;99.90;;;;;;5094907;28;20080;-75
2022/10/02 10:48:17;;;;;;;14.25;3.13;;;23.20;99.90;;;;;;5094637;28;20109;-75
2022/10/02 10:51:01;;;;;;;10.63;2.80;;;23.40;99.90;;;;;;5076227;28;20048;-74
2022/10/02 10:53:30;;;;;;;9.75;2.40;;;23.40;99.90;;;;;;5095289;28;20051;-75
2022/10/02 10:56:16;;;;;;;12.25;3.10;;;22.80;99.90;;;;;;5093203;28;20384;-75
2022/10/02 10:58:48;;;;;;;12.10;2.72;;;22.40;99.90;;;;;;5093950;28;20051;-75
2022/10/02 11:01:22;;;;;;;13.70;3.08;;;22.60;99.90;;;;;;5094192;28;20374;-75
2022/10/02 11:04:06;;;;;;;13.23;2.90;;;23.20;99.90;;;;;;5075930;28;20050;-72
2022/10/02 11:06:59;;;;;;;13.38;2.90;;;23.60;99.90;;;;;;5076722;28;20482;-72
2022/10/02 11:09:55;;;;;;;11.88;2.65;;;23.60;99.90;;;;;;5093238;28;20044;-72
2022/10/02 11:12:42;;;;;;;10.52;2.78;;;23.20;99.90;;;;;;5075511;28;20047;-73
2022/10/02 11:15:46;;;;;;;10.70;2.70;;;22.90;99.90;;;;;;5094497;28;20063;-73
2022/10/02 11:18:25;;;;;;;7.82;2.70;;;22.90;99.90;;;;;;5094104;28;20036;-74
2022/10/02 11:21:21;;;;;;;12.77;2.70;;;23.10;99.90;;;;;;5106954;28;20051;-79
2022/10/02 11:24:00;;;;;;;13.60;3.05;;;23.20;99.90;;;;;;5089005;28;20051;-78
2022/10/02 11:26:38;;;;;;;11.75;2.47;;;23.80;97.80;;;;;;5090520;28;20130;-78
2022/10/02 11:29:22;;;;;;;10.15;2.60;;;23.50;97.70;;;;;;5108769;28;20043;-78
2022/10/02 11:32:26;;;;;;;14.10;3.03;;;23.10;97.90;;;;;;5108848;28;20126;-78
2022/10/02 11:35:01;;;;;;;11.73;2.65;;;23.20;98.50;;;;;;5090243;28;20085;-78
2022/10/02 11:37:52;;;;;;;10.55;2.63;;;24.00;98.90;;;;;;5089202;28;20039;-77
2022/10/02 11:40:59;;;;;;;11.05;2.38;;;25.40;98.90;;;;;;5092020;28;20046;-78
2022/10/02 11:44:01;;;;;;;13.70;2.60;;;27.30;94.70;;;;;;5047611;28;20698;-79
2022/10/02 11:46:42;;;;;;;9.52;2.40;;;28.20;92.50;;;;;;5105158;28;20052;-78
2022/10/02 11:49:26;;;;;;;9.40;2.40;;;;;;;;;;5108199;28;20057;-78
2022/10/02 11:52:04;;;;;;;11.10;2.47;;;27.30;91.50;;;;;;5090674;28;20035;-78
2022/10/02 11:54:57;;;;;;;10.02;2.35;;;28.30;90.30;;;;;;5108299;28;20054;-78
2022/10/02 11:57:33;;;;;;;10.13;2.55;;;29.90;91.00;;;;;;5085266;28;20493;-79
2022/10/02 12:00:13;;;;;;;8.73;2.17;;;31.50;86.10;;;;;;5110227;28;20135;-79
2022/10/02 12:03:14;;;;;;;7.97;2.33;;;31.70;83.30;;;;;;5108839;28;20377;-78
2022/10/02 12:06:02;;;;;;;11.90;2.72;;;30.10;83.30;;;;;;5081015;28;20083;-80
2022/10/02 12:08:41;;;;;;;7.50;2.20;;;28.60;84.80;;;;;;5078421;28;20086;-80
2022/10/02 12:11:32;;;;;;;11.15;2.67;;;27.20;86.80;;;;;;5112704;28;20124;-76
2022/10/02 12:14:32;;;;;;;10.00;2.33;;;26.40;87.50;;;;;;5073198;28;20082;-77
2022/10/02 12:17:33;;;;;;;9.25;2.20;;;25.70;89.60;;;;;;5083659;28;20047;-76
2022/10/02 12:29:42;;;;;;;11.77;2.70;;;24.00;91.50;;;;;;5092823;28;20052;-76
2022/10/02 12:32:22;;;;;;;10.90;2.90;;;23.70;92.10;;;;;;5074040;28;20056;-77
2022/10/02 12:35:16;;;;;;;8.95;2.40;;;23.40;92.30;;;;;;5074577;28;20044;-76
2022/10/02 12:37:53;;;;;;;11.05;2.40;;;22.90;92.50;;;;;;5092517;28;20067;-76
2022/10/02 12:40:34;;;;;;;13.82;2.47;;;22.30;93.50;;;;;;5058068;28;20550;-76
2022/10/02 12:43:00;;;;;;;12.75;2.65;;;21.80;94.20;;;;;;5074183;28;20094;-76
2022/10/02 12:45:46;;;;;;;13.02;2.40;;;21.20;94.80;;;;;;5092842;28;20040;-76
2022/10/02 12:48:53;;;;;;;12.40;2.63;;;20.90;95.90;;;;;;5024169;28;20052;-76
2022/10/02 12:51:37;;;;;;;;;;;20.50;97.10;;;;;;5092026;28;20043;-76
2022/10/02 12:54:32;;;;;;;13.93;2.60;;;20.10;98.10;;;;;;5092438;28;20012;-76
2022/10/02 12:57:50;;;;;;;9.80;2.60;;;19.70;99.20;;;;;;5092262;28;20425;-76
2022/10/02 13:00:19;;;;;;;14.52;2.85;;;19.60;99.90;;;;;;5090759;28;20047;-76
2022/10/02 13:02:50;;;;;;;13.07;3.10;;;19.80;99.90;;;;;;5090846;28;20314;-77
2022/10/02 13:05:22;;;;;;;12.98;2.95;;;20.00;99.90;;;;;;5074274;28;20036;-76
2022/10/02 13:08:08;;;;;;;19.52;3.22;;;20.20;99.90;;;;;;5092329;28;20084;-76
2022/10/02 13:10:46;;;;;;;14.38;2.83;;;20.20;99.90;;;;;;5074337;28;20063;-77
2022/10/02 13:13:40;;;;;;;17.92;2.97;;;20.50;99.90;;;;;;5073962;28;20059;-76
2022/10/02 13:16:24;;;;;;;8.88;2.42;;;20.70;99.90;;;;;;5092078;28;20048;-76
2022/10/02 13:19:01;;;;;;;11.32;2.33;;;20.90;98.70;;;;;;5074386;28;20391;-76
2022/10/02 13:21:51;;;;;;;14.15;2.50;;;20.90;98.50;;;;;;5073913;28;20127;-76
2022/10/02 13:24:29;;;;;;;13.95;2.75;;;21.00;98.80;;;;;;5091973;28;20051;-76
2022/10/02 13:27:26;;;;;;;11.15;2.63;;;21.10;98.90;;;;;;5076657;28;20085;-76
2022/10/02 13:30:16;;;;;;;13.38;3.03;;;21.10;98.90;;;;;;5095101;28;20379;-76
2022/10/02 13:33:17;;;;;;;11.48;2.63;;;21.20;99.40;;;;;;5060347;28;20139;-76
2022/10/02 13:35:52;;;;;;;10.98;2.75;;;21.10;98.80;;;;;;5077604;28;20055;-76
2022/10/02 13:38:42;;;;;;;7.72;1.85;;;21.00;99.10;;;;;;5096425;28;20047;-76
2022/10/02 13:41:17;;;;;;;14.25;3.10;;;20.80;98.60;;;;;;5077743;28;20374;-75
2022/10/02 13:43:49;;;;;;;13.45;3.03;;;20.70;99.10;;;;;;5077984;28;20097;-76
2022/10/02 13:46:37;;;;;;;13.73;2.72;;;20.70;99.20;;;;;;5095748;28;20082;-76
2022/10/02 13:49:26;;;;;;;12.70;2.80;;;20.70;99.40;;;;;;5099616;28;20032;-75
2022/10/02 13:52:16;;;;;;;13.45;2.80;;;20.80;99.30;;;;;;5112264;28;20036;-71
2022/10/02 13:54:52;;;;;;;18.20;3.08;;;20.60;99.90;;;;;;5101453;28;20044;-72
2022/10/02 13:57:49;;;;;;;12.70;3.08;;;20.60;99.90;;;;;;5077503;28;20097;-72
2022/10/02 14:00:36;;;;;;;13.80;3.25;;;20.80;99.90;;;;;;5112452;28;20052;-72
2022/10/02 14:03:20;;;;;;;14.38;2.70;;;20.90;99.90;;;;;;5115892;28;20070;-73
2022/10/02 14:06:11;;;;;;;11.20;2.60;;;21.00;99.90;;;;;;5115343;28;20054;-72
2022/10/02 14:08:40;;;;;;;11.15;2.88;;;20.90;99.90;;;;;;5080894;28;20046;-72